Time;durP1;ratioP1;P1;durP2;ratioP2;P2;SDS_P1;SDS_P2;PMS_P1;PMS_P2;Temp;Humidity;BMP_temperature;BMP_pressure;BME280_temperature;BME280_humidity;BME280_pressure;Samples;Min_cycle;Max_cycle;Signal;HPM_P1;HPM_P2
2021/01/05 00:02:53;;;;;;;17.27;7.50;;;;;;;0.64;87.82;100893.50;5014554;57;1138390;-87
2021/01/05 00:07:59;;;;;;;46.87;19.50;;;;;;;0.63;87.93;100883.98;4980193;57;1136628;-87
2021/01/05 00:13:04;;;;;;;40.90;15.93;;;;;;;0.61;87.94;100885.33;4977517;58;1139111;-87
2021/01/05 00:18:10;;;;;;;43.78;18.85;;;;;;;0.61;88.02;100898.83;4974877;57;1138535;-87
2021/01/05 00:23:17;;;;;;;43.17;16.27;;;;;;;0.61;87.92;100891.84;4975321;57;1138400;-87
2021/01/05 00:28:22;;;;;;;49.50;19.73;;;;;;;0.65;87.92;100879.59;4975191;57;1138484;-87
2021/01/05 00:33:28;;;;;;;42.73;18.90;;;;;;;0.64;88.06;100872.67;4975700;57;1138411;-87
2021/01/05 00:38:33;;;;;;;35.93;14.80;;;;;;;0.61;87.84;100876.22;5015214;58;1138324;-87
2021/01/05 00:43:40;;;;;;;43.17;18.60;;;;;;;0.64;87.88;100881.78;5005956;57;1138407;-87
2021/01/05 00:48:46;;;;;;;45.60;19.00;;;;;;;0.60;87.95;100877.15;4986648;58;1138765;-87
2021/01/05 00:53:52;;;;;;;41.27;17.20;;;;;;;0.63;88.00;100872.27;4977744;58;1138434;-87
2021/01/05 00:58:57;;;;;;;39.00;16.57;;;;;;;0.64;87.98;100867.47;5042232;57;1138354;-88
2021/01/05 01:04:03;;;;;;;43.40;19.37;;;;;;;0.65;88.06;100876.53;5028219;57;1138483;-87
2021/01/05 01:09:10;;;;;;;45.53;17.87;;;;;;;0.67;88.07;100884.30;5073750;57;1138711;-87
2021/01/05 01:14:16;;;;;;;39.75;16.55;;;;;;;0.67;87.94;100883.00;5019729;57;1138688;-87
2021/01/05 01:19:22;;;;;;;47.57;18.57;;;;;;;0.69;87.94;100882.05;5064171;57;1138216;-88
2021/01/05 01:24:29;;;;;;;45.33;17.70;;;;;;;0.69;88.13;100880.75;5012666;57;1138417;-87
2021/01/05 01:29:35;;;;;;;43.00;18.50;;;;;;;0.73;87.90;100884.13;5052379;57;1138289;-87
2021/01/05 01:34:41;;;;;;;45.97;14.83;;;;;;;0.70;87.80;100881.16;5124207;57;21340;-88
2021/01/05 01:39:48;;;;;;;48.40;19.93;;;;;;;0.68;87.99;100884.70;5026595;57;1134082;-87
2021/01/05 01:44:55;;;;;;;70.53;26.10;;;;;;;0.67;87.79;100872.59;5028169;57;1138733;-87
2021/01/05 01:50:12;;;;;;;39.10;14.77;;;;;;;0.67;87.94;100867.37;5032997;57;1138546;-88
2021/01/05 01:55:35;;;;;;;22.70;8.47;;;;;;;0.68;87.97;100859.53;5066477;57;1138241;-87
2021/01/05 02:00:46;;;;;;;53.53;20.93;;;;;;;0.66;87.92;100850.06;4957667;57;1136554;-87
2021/01/05 02:06:29;;;;;;;56.70;20.37;;;;;;;0.63;87.86;100840.59;4966343;57;1138510;-87
2021/01/05 02:12:13;;;;;;;52.23;17.73;;;;;;;0.69;88.19;100846.92;4997593;58;1138392;-87
2021/01/05 02:17:44;;;;;;;;;;;;;;;0.71;88.11;100841.66;4952658;58;1138458;-87
2021/01/05 02:23:17;;;;;;;74.13;23.10;;;;;;;0.67;87.89;100839.60;4963741;58;971589;-88
2021/01/05 02:28:28;;;;;;;55.47;16.73;;;;;;;0.63;87.88;100838.44;4995418;58;1136127;-87
2021/01/05 02:33:38;;;;;;;48.13;15.60;;;;;;;0.57;88.02;100841.25;5055710;58;21501;-87
2021/01/05 02:39:01;;;;;;;65.57;19.57;;;;;;;0.55;87.92;100837.39;4958342;58;1134237;-88
2021/01/05 02:44:29;;;;;;;42.93;16.33;;;;;;;0.57;88.06;100829.54;4998261;58;1138406;-87
2021/01/05 02:50:34;;;;;;;56.37;18.53;;;;;;;0.61;88.08;100826.77;4953378;58;1138318;-87
2021/01/05 02:56:37;;;;;;;45.80;12.90;;;;;;;0.60;88.06;100829.00;4967381;58;1138755;-87
2021/01/05 03:01:54;;;;;;;48.07;17.83;;;;;;;0.58;88.00;100813.88;4945310;58;1138751;-86
2021/01/05 03:07:25;;;;;;;49.80;15.57;;;;;;;0.62;88.10;100817.21;4964172;58;1139336;-87
2021/01/05 03:13:43;;;;;;;50.90;18.83;;;;;;;0.63;88.15;100817.62;4929505;58;1138350;-87
2021/01/05 03:19:26;;;;;;;49.90;17.47;;;;;;;0.65;88.12;100812.77;4960366;58;1138429;-86
2021/01/05 03:24:41;;;;;;;43.70;17.80;;;;;;;0.67;87.96;100806.22;4934343;59;1138628;-86
2021/01/05 03:30:12;;;;;;;45.23;17.50;;;;;;;0.62;87.96;100805.50;4957578;59;1138430;-86
2021/01/05 03:35:35;;;;;;;31.17;9.73;;;;;;;0.66;87.98;100796.70;4941010;58;1138856;-87
2021/01/05 03:40:59;;;;;;;44.73;18.60;;;;;;;0.64;87.96;100779.83;4751817;59;1136289;-87
2021/01/05 03:46:22;;;;;;;;;;;;;;;0.59;88.12;100780.91;4753927;61;1138497;-87
2021/01/05 03:51:45;;;;;;;38.87;16.17;;;;;;;0.61;88.05;100783.83;4759904;61;971534;-87
2021/01/05 03:57:08;;;;;;;33.33;14.58;;;;;;;0.60;88.30;100776.09;4738081;61;1136720;-87
2021/01/05 04:02:31;;;;;;;34.53;12.07;;;;;;;0.53;88.37;100767.62;4965132;59;21522;-87
2021/01/05 04:07:37;;;;;;;37.63;16.50;;;;;;;0.53;88.37;100767.62;4916257;58;1134127;-87
2021/01/05 04:12:43;;;;;;;38.20;15.93;;;;;;;0.56;88.10;100790.10;4907905;58;1138337;-87
2021/01/05 04:17:48;;;;;;;22.30;10.60;;;;;;;0.55;88.30;100783.19;4948378;59;1138741;-87
2021/01/05 04:22:55;;;;;;;36.20;15.37;;;;;;;0.56;88.22;100779.24;4898631;58;1138563;-87
2021/01/05 04:28:00;;;;;;;46.37;15.90;;;;;;;0.61;88.35;100784.31;4902756;58;1138798;-87
2021/01/05 04:33:10;;;;;;;38.03;17.37;;;;;;;0.62;88.24;100789.44;4924279;58;1138679;-88
2021/01/05 04:38:15;;;;;;;34.60;15.73;;;;;;;0.61;88.19;100783.83;4912699;58;1138474;-87
2021/01/05 04:43:43;;;;;;;29.07;12.20;;;;;;;0.63;88.18;100791.14;4899204;58;1138308;-87
2021/01/05 04:49:02;;;;;;;25.50;10.77;;;;;;;0.67;88.17;100784.94;4908239;58;1138719;-87
2021/01/05 04:54:12;;;;;;;35.50;16.60;;;;;;;0.68;88.27;100785.80;4921766;58;1138452;-87
2021/01/05 04:59:19;;;;;;;35.73;16.00;;;;;;;0.71;88.15;100784.39;4905476;58;1138385;-87
2021/01/05 05:04:47;;;;;;;34.23;15.13;;;;;;;0.73;88.12;100782.59;5000693;58;1138793;-87
2021/01/05 05:10:00;;;;;;;31.75;15.05;;;;;;;0.68;88.03;100780.59;4986078;58;1139058;-87
2021/01/05 05:15:31;;;;;;;17.37;7.58;;;;;;;0.68;88.13;100787.09;4985347;58;1138419;-88
2021/01/05 05:20:49;;;;;;;52.00;19.50;;;;;;;0.69;88.28;100785.75;4997127;58;1136463;-88
2021/01/05 05:26:14;;;;;;;35.13;15.30;;;;;;;0.69;88.36;100780.55;5003066;58;1138492;-87
2021/01/05 05:31:24;;;;;;;38.15;17.52;;;;;;;0.70;88.18;100784.84;4847862;59;1138432;-87
2021/01/05 05:37:16;;;;;;;30.82;13.90;;;;;;;0.68;88.06;100781.89;4992600;58;1138483;-87
2021/01/05 05:42:43;;;;;;;37.83;16.17;;;;;;;0.63;88.31;100772.92;4994838;58;1138891;-87
2021/01/05 05:48:11;;;;;;;39.10;16.07;;;;;;;0.63;88.14;100774.67;4974474;58;1138328;-87
2021/01/05 05:53:21;;;;;;;34.33;15.00;;;;;;;0.67;88.36;100769.77;4976979;58;1138717;-87
2021/01/05 05:58:30;;;;;;;39.10;16.10;;;;;;;0.68;88.46;100767.57;4997198;58;1138461;-87
2021/01/05 06:03:36;;;;;;;32.53;14.90;;;;;;;0.72;88.35;100766.58;5008726;57;1138580;-87
2021/01/05 06:08:41;;;;;;;32.03;15.30;;;;;;;0.76;88.23;100759.08;5045689;57;1138782;-87
2021/01/05 06:13:47;;;;;;;43.50;21.23;;;;;;;0.71;88.31;100749.26;5033709;57;1138566;-87
2021/01/05 06:18:53;;;;;;;27.97;13.20;;;;;;;0.71;88.31;100749.26;5043101;57;1138389;-87
2021/01/05 06:23:58;;;;;;;33.48;15.65;;;;;;;0.75;88.08;100749.56;5025259;57;1138376;-86
2021/01/05 06:29:04;;;;;;;20.17;10.17;;;;;;;0.72;88.02;100746.20;5059707;57;1138228;-87
2021/01/05 06:34:10;;;;;;;24.70;12.00;;;;;;;0.73;88.16;100739.65;5043560;57;1138253;-87
2021/01/05 06:39:15;;;;;;;23.75;12.37;;;;;;;0.75;88.18;100738.30;4998222;57;1138929;-87
2021/01/05 06:44:20;;;;;;;33.28;14.40;;;;;;;0.75;88.16;100737.00;4832426;59;1138545;-87
2021/01/05 06:49:28;;;;;;;29.43;14.37;;;;;;;0.74;88.01;100735.30;4834873;59;1138769;-87
2021/01/05 06:54:34;;;;;;;37.03;17.30;;;;;;;0.70;88.16;100724.98;4851139;59;1138391;-87
2021/01/05 06:59:40;;;;;;;38.50;16.53;;;;;;;0.76;88.25;100738.25;4863882;59;1138279;-87
2021/01/05 07:04:45;;;;;;;29.13;14.00;;;;;;;0.80;88.09;100733.31;4760453;60;1138517;-87
2021/01/05 07:09:51;;;;;;;25.23;13.57;;;;;;;0.76;88.12;100732.19;4843884;59;1138273;-87
2021/01/05 07:14:56;;;;;;;33.83;15.47;;;;;;;0.74;88.11;100733.99;4927421;59;1138515;-86
2021/01/05 07:20:04;;;;;;;27.10;14.00;;;;;;;0.76;88.18;100725.69;4851943;59;1138359;-87
2021/01/05 07:25:14;;;;;;;33.23;16.73;;;;;;;0.77;88.26;100727.36;4845630;59;1138825;-88
2021/01/05 07:30:20;;;;;;;33.80;15.93;;;;;;;0.78;88.32;100728.61;4849836;59;1138468;-88
2021/01/05 07:35:26;;;;;;;30.40;14.83;;;;;;;0.79;88.15;100736.82;4852638;59;1138360;-87
2021/01/05 07:40:32;;;;;;;38.27;19.30;;;;;;;0.81;88.26;100732.41;4846846;59;1138602;-86
2021/01/05 07:45:37;;;;;;;27.70;13.73;;;;;;;0.80;88.17;100733.31;4847251;59;1138364;-87
2021/01/05 07:50:43;;;;;;;32.93;15.60;;;;;;;0.82;88.19;100735.42;4866653;59;1138591;-88
2021/01/05 07:55:48;;;;;;;14.70;7.67;;;;;;;0.83;88.12;100731.91;4844183;59;1138781;-87
2021/01/05 08:00:54;;;;;;;41.33;18.27;;;;;;;0.82;88.26;100730.66;4845914;59;1136503;-87
2021/01/05 08:06:00;;;;;;;25.67;12.23;;;;;;;0.86;88.44;100725.30;4846842;59;1138400;-87
2021/01/05 08:11:05;;;;;;;34.07;16.73;;;;;;;0.82;88.23;100725.45;4869009;59;1138335;-87
2021/01/05 08:16:15;;;;;;;35.17;16.33;;;;;;;0.85;88.31;100724.05;4864515;59;1138825;-88
2021/01/05 08:21:25;;;;;;;67.47;36.73;;;;;;;0.88;88.40;100719.60;4866716;59;1138578;-87
2021/01/05 08:26:31;;;;;;;28.30;14.40;;;;;;;0.91;88.51;100707.78;4881951;59;1138519;-87
2021/01/05 08:31:41;;;;;;;39.38;19.17;;;;;;;0.97;88.45;100707.55;4860389;59;1138303;-86
2021/01/05 08:36:46;;;;;;;35.63;15.30;;;;;;;0.96;88.41;100699.78;4864747;59;1138702;-87
2021/01/05 08:41:57;;;;;;;40.87;18.97;;;;;;;0.99;88.51;100700.98;4865533;59;1138250;-87
2021/01/05 08:47:05;;;;;;;32.87;15.13;;;;;;;1.00;88.34;100689.67;4870751;59;1138581;-86
2021/01/05 08:52:10;;;;;;;41.47;18.73;;;;;;;1.07;88.48;100687.70;4860021;59;1138499;-86
2021/01/05 08:57:16;;;;;;;57.15;24.30;;;;;;;1.08;88.50;100692.84;4866940;59;1138569;-86
2021/01/05 09:02:22;;;;;;;47.03;19.73;;;;;;;1.07;88.48;100696.34;4867283;59;1138396;-85
2021/01/05 09:07:27;;;;;;;16.53;8.00;;;;;;;1.11;88.34;100691.43;4864904;59;1138803;-87
2021/01/05 09:12:35;;;;;;;64.33;26.40;;;;;;;1.06;88.57;100685.55;4859816;58;1136220;-86
2021/01/05 09:17:43;;;;;;;56.43;22.93;;;;;;;1.04;88.51;100670.44;4856142;58;1138245;-86
2021/01/05 09:22:50;;;;;;;73.67;31.73;;;;;;;1.11;88.66;100673.64;4911137;58;1138518;-87
2021/01/05 09:27:55;;;;;;;50.53;23.77;;;;;;;1.12;88.60;100668.38;4909377;59;1138422;-87
2021/01/05 09:33:02;;;;;;;48.37;22.37;;;;;;;1.14;88.57;100663.97;4906649;58;1138629;-87
2021/01/05 09:38:09;;;;;;;23.63;10.97;;;;;;;1.18;88.50;100655.60;4906119;58;1138502;-86
2021/01/05 09:43:14;;;;;;;46.98;18.73;;;;;;;1.22;88.44;100659.80;4925670;58;1138395;-86
2021/01/05 09:48:21;;;;;;;40.60;19.17;;;;;;;1.20;88.52;100651.19;4932160;58;1148103;-87
2021/01/05 09:53:26;;;;;;;42.48;18.67;;;;;;;1.20;88.40;100648.59;4910113;58;1138379;-88
2021/01/05 09:58:31;;;;;;;42.30;18.37;;;;;;;1.18;88.37;100634.77;4895492;58;1138538;-87
2021/01/05 10:03:38;;;;;;;35.50;14.17;;;;;;;1.15;88.40;100630.97;4901401;58;1138723;-86
2021/01/05 10:08:43;;;;;;;76.40;29.27;;;;;;;1.14;88.45;100624.05;4911545;58;1138680;-86
2021/01/05 10:13:49;;;;;;;56.17;22.43;;;;;;;1.12;88.50;100617.59;4915958;58;1138770;-87
2021/01/05 10:18:54;;;;;;;44.07;17.03;;;;;;;1.18;88.80;100616.08;4906007;58;1138235;-86
2021/01/05 10:24:00;;;;;;;54.70;20.47;;;;;;;1.20;88.69;100617.33;4904478;58;1138469;-86
2021/01/05 10:29:09;;;;;;;35.70;15.37;;;;;;;1.22;88.58;100612.42;4890475;58;1138292;-86
2021/01/05 10:34:19;;;;;;;64.70;23.12;;;;;;;1.25;88.60;100600.59;4861795;59;1138804;-85
2021/01/05 10:39:27;;;;;;;44.92;20.94;;;;;;;1.25;88.66;100599.74;4888935;58;1138500;-86
2021/01/05 10:44:32;;;;;;;63.60;24.00;;;;;;;1.28;88.64;100597.88;4914148;58;1138253;-87
2021/01/05 10:49:38;;;;;;;55.27;23.40;;;;;;;1.29;88.51;100593.52;4890783;59;1138212;-85
2021/01/05 10:54:43;;;;;;;52.20;22.77;;;;;;;1.34;88.61;100586.38;4887566;57;1138570;-86
2021/01/05 10:59:49;;;;;;;53.58;19.67;;;;;;;1.34;88.53;100582.48;4958787;59;1138551;-86
2021/01/05 11:04:54;;;;;;;40.53;18.37;;;;;;;1.34;88.46;100574.66;4901842;57;1138741;-86
2021/01/05 11:10:01;;;;;;;41.57;19.27;;;;;;;1.35;88.48;100564.18;4821761;59;1138736;-86
2021/01/05 11:15:08;;;;;;;55.43;21.80;;;;;;;1.39;88.61;100550.55;4838440;59;1138799;-87
2021/01/05 11:20:19;;;;;;;42.80;18.63;;;;;;;1.38;88.60;100545.80;4785562;59;1138770;-88
2021/01/05 11:25:25;;;;;;;60.53;25.57;;;;;;;1.39;88.53;100538.37;4760272;60;1138931;-86
2021/01/05 11:30:30;;;;;;;42.07;18.03;;;;;;;1.44;88.56;100534.30;4743514;60;1138369;-86
2021/01/05 11:35:36;;;;;;;61.77;23.93;;;;;;;1.43;88.51;100527.38;4818186;59;1138354;-87
2021/01/05 11:40:43;;;;;;;49.03;21.37;;;;;;;1.42;88.40;100520.47;4928457;58;1138428;-86
2021/01/05 11:45:49;;;;;;;36.83;16.60;;;;;;;1.44;88.57;100509.98;4976177;58;1138389;-86
2021/01/05 11:50:54;;;;;;;45.60;19.50;;;;;;;1.45;88.63;100503.42;4939983;58;1138260;-86
2021/01/05 11:56:00;;;;;;;55.03;21.70;;;;;;;1.46;88.49;100502.96;4931590;58;1138920;-86
2021/01/05 12:01:05;;;;;;;38.83;15.37;;;;;;;1.45;88.41;100490.84;4798050;59;1138443;-87
2021/01/05 12:06:18;;;;;;;60.67;22.10;;;;;;;1.49;88.46;100490.66;4709316;61;1232167;-87
2021/01/05 12:11:30;;;;;;;76.67;33.00;;;;;;;1.49;88.54;100485.91;4716479;60;1138520;-87
2021/01/05 12:16:39;;;;;;;66.13;26.37;;;;;;;1.49;88.42;100471.12;4836499;59;1138997;-85
2021/01/05 12:21:45;;;;;;;42.03;17.03;;;;;;;1.50;88.38;100466.75;4711014;60;1138346;-85
2021/01/05 12:26:52;;;;;;;137.23;47.90;;;;;;;1.54;88.38;100463.94;4699224;60;1138803;-86
2021/01/05 12:32:11;;;;;;;108.40;38.33;;;;;;;1.54;88.44;100457.87;4732638;61;1140497;-86
2021/01/05 12:37:23;;;;;;;435.95;207.67;;;;;;;1.54;88.26;100450.91;4776770;59;1140717;-85
2021/01/05 12:42:31;;;;;;;52.40;20.48;;;;;;;1.53;88.13;100454.42;4811493;59;1142704;-87
2021/01/05 12:47:36;;;;;;;61.80;24.90;;;;;;;1.55;88.25;100451.75;4645476;62;1138628;-85
2021/01/05 12:52:42;;;;;;;48.07;18.77;;;;;;;1.52;88.16;100450.15;4765259;60;1138859;-86
2021/01/05 12:57:47;;;;;;;66.60;22.97;;;;;;;1.53;87.95;100456.20;4809564;60;1138493;-86
2021/01/05 13:02:53;;;;;;;35.57;14.87;;;;;;;1.49;87.95;100450.72;4813873;59;1138304;-86
2021/01/05 13:07:58;;;;;;;36.60;16.63;;;;;;;1.43;87.86;100449.20;4849142;59;1138549;-87
2021/01/05 13:13:05;;;;;;;36.03;15.90;;;;;;;1.38;87.82;100449.84;4830445;58;1138226;-85
2021/01/05 13:18:11;;;;;;;38.63;18.03;;;;;;;1.34;87.83;100442.62;4965546;58;1138741;-86
2021/01/05 13:23:17;;;;;;;29.43;15.77;;;;;;;1.33;88.04;100446.59;4952544;58;1138233;-87
2021/01/05 13:28:23;;;;;;;23.73;12.83;;;;;;;1.34;87.87;100441.33;4951262;58;1138756;-89
2021/01/05 13:33:28;;;;;;;27.13;13.25;;;;;;;1.32;87.83;100440.98;4951308;58;1138381;-90
2021/01/05 13:38:34;;;;;;;33.00;16.43;;;;;;;1.28;87.86;100442.02;4954043;58;1138622;-88
2021/01/05 13:43:41;;;;;;;31.90;13.53;;;;;;;1.26;87.86;100439.92;4952268;58;1138266;-90
2021/01/05 13:48:46;;;;;;;39.93;17.27;;;;;;;1.24;87.82;100443.05;4971250;58;1138753;-90
2021/01/05 13:53:56;;;;;;;47.43;18.60;;;;;;;1.21;87.81;100443.19;4951742;58;1138347;-91
2021/01/05 13:59:03;;;;;;;37.73;17.13;;;;;;;1.21;87.84;100434.08;5028890;58;1138402;-89
2021/01/05 14:04:09;;;;;;;47.77;19.80;;;;;;;1.18;87.89;100427.68;4952045;58;1138342;-91
2021/01/05 14:09:15;;;;;;;45.93;20.33;;;;;;;1.19;88.05;100426.32;4915449;58;1138944;-90
2021/01/05 14:14:20;;;;;;;26.02;12.65;;;;;;;1.15;87.82;100410.41;4884523;58;1139199;-91
2021/01/05 14:19:29;;;;;;;26.77;14.23;;;;;;;1.13;87.87;100416.14;4865992;58;1138551;-90
2021/01/05 14:24:35;;;;;;;22.10;11.20;;;;;;;1.11;87.91;100414.50;4897254;59;1138276;-92
2021/01/05 14:29:42;;;;;;;24.80;13.60;;;;;;;1.10;87.77;100411.05;4891166;59;1138803;-90
2021/01/05 14:34:48;;;;;;;34.70;14.80;;;;;;;1.09;87.75;100407.20;4892721;58;1138266;-90
2021/01/05 14:39:54;;;;;;;28.97;12.93;;;;;;;1.08;88.12;100406.80;4877652;59;1138425;-91
2021/01/05 14:44:59;;;;;;;43.13;17.97;;;;;;;1.09;88.00;100402.84;4894573;59;1138980;-89
2021/01/05 14:50:06;;;;;;;86.20;31.53;;;;;;;1.08;87.93;100403.74;4876703;57;1138556;-89
2021/01/05 14:55:12;;;;;;;46.67;18.43;;;;;;;1.11;87.97;100398.42;4910443;59;1138301;-89
2021/01/05 15:00:19;;;;;;;47.43;16.40;;;;;;;1.08;87.99;100395.08;4883945;58;1138984;-89
2021/01/05 15:05:24;;;;;;;63.10;21.27;;;;;;;1.07;88.08;100399.93;4945007;58;1138323;-89
2021/01/05 15:10:30;;;;;;;63.00;25.20;;;;;;;1.07;87.95;100392.93;4875930;58;1138485;-88
2021/01/05 15:15:35;;;;;;;54.83;20.27;;;;;;;1.08;88.01;100393.78;4898618;58;1138797;-88
2021/01/05 15:20:41;;;;;;;411.30;184.00;;;;;;;1.08;87.95;100384.21;4883808;58;1138399;-88
2021/01/05 15:25:48;;;;;;;123.30;56.90;;;;;;;1.12;87.92;100388.84;4810811;59;1142474;-89
2021/01/05 15:30:54;;;;;;;117.40;41.43;;;;;;;1.08;87.88;100385.97;4917458;58;1140430;-90
2021/01/05 15:35:59;;;;;;;40.00;14.23;;;;;;;1.08;88.03;100388.12;4865438;58;1140418;-88
2021/01/05 15:41:07;;;;;;;40.53;15.43;;;;;;;1.08;87.89;100385.52;4859437;58;1138771;-89
2021/01/05 15:46:29;;;;;;;28.97;12.17;;;;;;;1.05;87.82;100381.76;4834180;59;1138643;-87
2021/01/05 15:51:41;;;;;;;37.30;15.67;;;;;;;1.03;87.82;100373.16;4874308;58;1138380;-89
2021/01/05 15:56:56;;;;;;;32.35;13.62;;;;;;;1.01;87.80;100368.46;4957658;58;1138202;-90
2021/01/05 16:02:03;;;;;;;37.63;17.37;;;;;;;0.97;87.87;100354.71;4920602;58;1138221;-89
2021/01/05 16:07:14;;;;;;;29.80;12.50;;;;;;;0.94;87.92;100352.68;4966186;59;1138436;-90
2021/01/05 16:12:19;;;;;;;32.40;14.30;;;;;;;0.95;87.94;100351.77;4927536;59;1147171;-89
2021/01/05 16:17:25;;;;;;;25.47;10.43;;;;;;;0.98;87.95;100359.47;4911652;59;1136306;-89
2021/01/05 16:22:30;;;;;;;22.58;10.43;;;;;;;0.96;87.96;100343.91;4939920;59;1138685;-87
2021/01/05 16:27:36;;;;;;;23.87;10.17;;;;;;;0.96;87.88;100338.70;4895237;58;1138278;-89
2021/01/05 16:32:41;;;;;;;43.33;20.90;;;;;;;0.92;87.87;100336.27;4907507;59;1138379;-88
2021/01/05 16:37:49;;;;;;;54.87;21.90;;;;;;;0.89;87.99;100326.86;4870665;59;1138241;-88
2021/01/05 16:42:54;;;;;;;104.03;45.40;;;;;;;0.89;88.00;100329.91;4897085;58;1138343;-89
2021/01/05 16:48:03;;;;;;;30.17;14.23;;;;;;;0.93;88.02;100317.98;4921780;58;1140367;-90
2021/01/05 16:53:12;;;;;;;61.07;23.97;;;;;;;0.96;87.93;100314.41;4981108;58;1138392;-89
2021/01/05 16:58:24;;;;;;;37.30;14.70;;;;;;;0.90;87.95;100302.52;4919946;57;1138285;-86
2021/01/05 17:03:30;;;;;;;46.02;22.07;;;;;;;0.89;87.92;100306.48;4907572;58;1138682;-89
2021/01/05 17:08:35;;;;;;;44.93;19.07;;;;;;;0.88;87.91;100306.94;4919110;58;1138515;-89
2021/01/05 17:13:41;;;;;;;26.63;13.20;;;;;;;0.84;88.12;100287.59;4942716;58;1138279;-90
2021/01/05 17:18:46;;;;;;;93.27;32.60;;;;;;;0.87;87.94;100291.37;4918533;58;1138524;-91
2021/01/05 17:23:56;;;;;;;55.97;23.70;;;;;;;0.87;87.92;100282.27;4967295;58;1138432;-90
2021/01/05 17:29:00;;;;;;;38.78;14.20;;;;;;;0.88;87.94;100286.11;4942057;58;1138281;-89
2021/01/05 17:34:07;;;;;;;52.08;23.35;;;;;;;0.87;87.98;100275.30;4988733;58;1138407;-89
2021/01/05 17:39:13;;;;;;;32.60;13.33;;;;;;;0.87;87.87;100279.20;4844360;59;1138251;-89
2021/01/05 17:44:36;;;;;;;34.60;11.43;;;;;;;0.89;87.92;100277.39;4900101;58;1138396;-90
2021/01/05 17:56:45;;;;;;;32.60;13.88;;;;;;;0.86;87.94;100275.36;5041191;58;1136257;-88
2021/01/05 18:01:51;;;;;;;41.90;14.67;;;;;;;0.82;88.01;100274.63;4959133;58;1138699;-86
2021/01/05 18:06:57;;;;;;;47.10;16.83;;;;;;;0.79;87.99;100270.85;4883406;58;1138554;-87
2021/01/05 18:12:03;;;;;;;14.33;5.43;;;;;;;0.83;88.11;100267.22;4997988;57;1138254;-88
2021/01/05 18:17:49;;;;;;;12.43;4.67;;;;;;;0.86;87.99;100268.85;5019240;59;21455;-88
2021/01/05 18:22:54;;;;;;;21.87;8.00;;;;;;;0.83;87.95;100256.80;4979763;59;1132168;-91
2021/01/05 18:28:01;;;;;;;22.03;7.17;;;;;;;0.83;88.02;100259.41;4867175;59;1136232;-90
2021/01/05 18:33:07;;;;;;;17.03;8.03;;;;;;;0.84;88.01;100257.66;4831660;58;1136381;-91
2021/01/05 18:38:14;;;;;;;83.70;37.93;;;;;;;0.84;88.08;100254.59;4819538;59;1137075;-90
2021/01/05 18:43:20;;;;;;;29.13;9.63;;;;;;;0.86;87.98;100250.17;4846292;60;21230;-91
2021/01/05 18:48:26;;;;;;;15.20;6.17;;;;;;;0.87;87.85;100249.27;4978435;59;1132237;-90
2021/01/05 18:53:31;;;;;;;18.48;7.72;;;;;;;0.88;87.86;100242.30;4740080;60;1136377;-91
2021/01/05 18:58:37;;;;;;;7.33;3.43;;;;;;;0.88;88.04;100242.30;4867552;59;1136339;-92
2021/01/05 19:03:43;;;;;;;11.97;6.20;;;;;;;0.91;88.06;100246.94;4916071;59;21359;-90
2021/01/05 19:08:49;;;;;;;10.97;4.57;;;;;;;0.88;87.71;100239.25;4899502;60;21120;-90
2021/01/05 19:13:56;;;;;;;14.03;5.60;;;;;;;0.90;87.85;100244.39;4859638;59;1132171;-91
2021/01/05 19:19:01;;;;;;;45.23;17.03;;;;;;;0.89;87.75;100251.81;4806364;59;1136489;-90
2021/01/05 19:24:09;;;;;;;35.03;16.00;;;;;;;0.84;87.68;100242.88;4769583;60;1138212;-91
2021/01/05 19:29:17;;;;;;;20.20;8.73;;;;;;;0.85;87.76;100239.83;4982890;59;21169;-89
2021/01/05 19:34:21;;;;;;;28.53;13.57;;;;;;;0.85;87.67;100243.27;4950580;59;21735;-89
2021/01/05 19:39:27;;;;;;;24.63;10.83;;;;;;;0.81;87.70;100240.86;4967198;57;1134364;-90
2021/01/05 19:44:33;;;;;;;21.97;8.83;;;;;;;0.83;87.93;100233.37;4815855;59;1147947;-91
2021/01/05 19:49:42;;;;;;;50.63;20.30;;;;;;;0.83;87.69;100239.88;4873261;59;1136351;-91
2021/01/05 19:54:48;;;;;;;46.55;14.78;;;;;;;0.81;87.88;100232.59;4815176;59;1138541;-91
2021/01/05 19:59:56;;;;;;;43.60;14.50;;;;;;;0.80;87.74;100226.99;4883238;59;1138335;-90
2021/01/05 20:05:02;;;;;;;28.83;10.93;;;;;;;0.81;87.78;100225.23;4931587;59;21167;-91
2021/01/05 20:10:08;;;;;;;36.67;16.47;;;;;;;0.84;87.76;100223.81;4922471;59;21170;-91
2021/01/05 20:15:15;;;;;;;38.87;12.80;;;;;;;0.85;88.03;100220.30;4874250;59;1134275;-90
2021/01/05 20:20:25;;;;;;;29.37;10.03;;;;;;;0.85;87.91;100223.75;4927728;59;1136349;-88
2021/01/05 20:25:32;;;;;;;30.77;10.93;;;;;;;0.85;87.70;100222.45;4843384;59;1138394;-88
2021/01/05 20:30:38;;;;;;;31.68;12.37;;;;;;;0.85;87.71;100213.80;4768930;60;1138586;-89
2021/01/05 20:35:44;;;;;;;28.90;10.33;;;;;;;0.88;87.86;100223.63;4822362;59;1138456;-88
2021/01/05 20:40:54;;;;;;;32.77;10.07;;;;;;;0.88;87.92;100215.81;4922102;58;1138629;-89
2021/01/05 20:46:06;;;;;;;28.33;12.73;;;;;;;0.90;87.68;100220.96;4942133;58;1138504;-88
2021/01/05 20:51:12;;;;;;;34.37;11.47;;;;;;;0.92;87.64;100207.39;4831576;60;1138555;-89
2021/01/05 20:56:18;;;;;;;29.23;10.77;;;;;;;0.89;87.62;100210.16;4816819;60;1138437;-90
2021/01/05 21:01:24;;;;;;;40.87;13.30;;;;;;;0.87;87.85;100207.61;5043784;58;21166;-90
2021/01/05 21:06:29;;;;;;;23.93;10.47;;;;;;;0.90;87.79;100202.73;4932150;59;21163;-87
2021/01/05 21:11:36;;;;;;;40.30;14.17;;;;;;;0.89;87.62;100199.28;5046646;58;21137;-91
2021/01/05 21:16:42;;;;;;;49.30;16.87;;;;;;;0.86;87.69;100196.81;5071180;58;21277;-90
2021/01/05 21:21:47;;;;;;;57.37;16.77;;;;;;;0.85;87.75;100200.32;5071249;58;21288;-89
2021/01/05 21:26:53;;;;;;;103.43;34.33;;;;;;;0.90;87.71;100198.83;5032350;58;21165;-88
2021/01/05 21:32:01;;;;;;;203.13;79.97;;;;;;;0.95;87.69;100192.95;5025176;59;21264;-88
2021/01/05 21:37:07;;;;;;;71.67;22.57;;;;;;;0.98;87.93;100186.31;4934690;58;1136194;-89
2021/01/05 21:42:12;;;;;;;57.40;18.77;;;;;;;0.96;87.72;100179.87;4932107;58;1138304;-88
2021/01/05 21:47:18;;;;;;;59.50;18.17;;;;;;;0.97;87.71;100175.50;5002415;58;1138358;-89
2021/01/05 21:52:24;;;;;;;50.73;14.10;;;;;;;0.98;87.50;100181.11;4915119;58;1138343;-89
2021/01/05 21:57:37;;;;;;;56.60;15.93;;;;;;;0.91;87.52;100174.03;5038204;59;21102;-90
2021/01/05 22:02:40;;;;;;;62.60;19.07;;;;;;;0.92;87.48;100171.80;5010143;59;21144;-90
2021/01/05 22:07:46;;;;;;;30.63;11.67;;;;;;;0.97;87.77;100174.20;4929639;58;1134178;-90
2021/01/05 22:12:52;;;;;;;24.37;7.80;;;;;;;0.97;87.77;100173.75;4898850;58;1138361;-89
2021/01/05 22:17:58;;;;;;;16.77;8.23;;;;;;;0.96;87.64;100178.56;4956284;58;1136466;-89
2021/01/05 22:23:08;;;;;;;25.30;8.93;;;;;;;0.96;87.51;100175.11;4894359;58;1136484;-90
2021/01/05 22:28:22;;;;;;;25.85;10.20;;;;;;;0.98;87.50;100167.63;4969788;58;1134161;-90
2021/01/05 22:33:29;;;;;;;21.43;8.70;;;;;;;0.94;87.55;100166.06;4936143;59;21189;-90
2021/01/05 22:38:34;;;;;;;21.40;8.67;;;;;;;0.95;87.68;100161.70;4974870;58;1132217;-91
2021/01/05 22:43:40;;;;;;;19.77;8.17;;;;;;;0.95;87.45;100159.10;4928756;59;1136323;-91
2021/01/05 22:48:46;;;;;;;21.90;10.30;;;;;;;0.98;87.66;100158.52;4950877;59;21145;-90
2021/01/05 22:53:51;;;;;;;22.23;10.67;;;;;;;0.98;87.65;100154.61;4997138;59;21095;-90
2021/01/05 22:58:57;;;;;;;26.20;10.63;;;;;;;0.97;87.81;100155.98;4888637;58;1134066;-90
2021/01/05 23:04:02;;;;;;;23.50;9.97;;;;;;;1.02;87.83;100156.17;4912836;58;1138382;-89
2021/01/05 23:09:14;;;;;;;21.47;9.73;;;;;;;1.07;87.74;100155.13;4982759;59;21149;-89
2021/01/05 23:14:20;;;;;;;18.93;10.07;;;;;;;1.08;87.60;100158.94;4972288;58;1132020;-90
2021/01/05 23:19:26;;;;;;;23.97;10.87;;;;;;;1.08;87.85;100155.49;4857749;58;1138884;-90
2021/01/05 23:24:31;;;;;;;27.17;11.97;;;;;;;1.09;87.77;100155.42;4843501;58;1138554;-90